Time;durP1;ratioP1;P1;durP2;ratioP2;P2;SDS_P1;SDS_P2;PMS_P1;PMS_P2;Temp;Humidity;BMP_temperature;BMP_pressure;BME280_temperature;BME280_humidity;BME280_pressure;Samples;Min_cycle;Max_cycle;Signal;HPM_P1;HPM_P2
2023/08/31 00:01:49;;;;;;;11.82;8.52;;;;;;;24.28;73.59;99567.44;5047780;28;20090;-78
2023/08/31 00:04:15;;;;;;;13.73;8.55;;;;;;;24.50;72.58;99567.56;5047460;28;20040;-80
2023/08/31 00:06:45;;;;;;;11.50;9.05;;;;;;;24.55;72.63;99564.75;5047243;28;20059;-79
2023/08/31 00:09:13;;;;;;;11.90;8.57;;;;;;;24.46;72.64;99572.97;5047484;28;20060;-84
2023/08/31 00:11:38;;;;;;;14.25;8.57;;;;;;;24.48;72.55;99561.47;5066884;28;20419;-79
2023/08/31 00:14:04;;;;;;;10.93;8.35;;;;;;;24.37;72.89;99588.22;5089332;28;20024;-79
2023/08/31 00:16:30;;;;;;;9.15;8.13;;;;;;;24.39;72.87;99581.09;5090239;28;20032;-79
2023/08/31 00:18:58;;;;;;;11.65;8.32;;;;;;;24.34;72.98;99569.00;5089720;28;20024;-81
2023/08/31 00:21:24;;;;;;;11.83;8.27;;;;;;;24.45;72.27;99584.44;5090089;28;20423;-79
2023/08/31 00:23:50;;;;;;;12.95;8.82;;;;;;;24.41;72.33;99575.78;5089954;28;20266;-77
2023/08/31 00:26:15;;;;;;;11.63;8.38;;;;;;;24.53;72.60;99595.59;5090127;28;20032;-79
2023/08/31 00:28:42;;;;;;;15.07;8.32;;;;;;;24.48;72.44;99587.84;5071976;28;20024;-78
2023/08/31 00:31:10;;;;;;;13.88;8.80;;;;;;;23.90;73.43;99538.78;5071513;28;20402;-79
2023/08/31 00:33:38;;;;;;;11.02;8.32;;;;;;;24.16;73.79;99591.56;5089739;28;20028;-82
2023/08/31 00:36:03;;;;;;;9.98;7.95;;;;;;;24.08;73.84;99599.75;5091045;28;20038;-84
2023/08/31 00:38:32;;;;;;;10.50;7.97;;;;;;;23.99;74.10;99603.56;5093757;28;20024;-79
2023/08/31 00:40:57;;;;;;;9.98;8.05;;;;;;;24.12;74.26;99617.19;5093645;28;20035;-80
2023/08/31 00:43:23;;;;;;;12.30;8.23;;;;;;;24.04;74.55;99613.97;5075675;28;20039;-81
2023/08/31 00:45:51;;;;;;;12.27;9.20;;;;;;;24.07;74.56;99627.03;5075563;28;20479;-79
2023/08/31 00:48:17;;;;;;;12.20;8.60;;;;;;;24.16;74.55;99632.03;5075567;28;20056;-80
2023/08/31 00:54:05;;;;;;;9.32;8.05;;;;;;;24.46;73.09;99639.81;5192002;22;20065;-83
2023/08/31 00:56:31;;;;;;;11.13;8.13;;;;;;;24.48;72.83;99629.22;5075552;28;20396;-79
2023/08/31 00:58:56;;;;;;;11.90;8.30;;;;;;;24.60;72.33;99627.91;5093541;28;20037;-80
2023/08/31 01:01:46;;;;;;;15.40;8.30;;;;;;;24.81;72.46;99636.88;5093806;28;20027;-80
2023/08/31 01:04:33;;;;;;;13.10;8.60;;;;;;;24.89;71.92;99634.84;5094031;28;20515;-78
2023/08/31 01:07:30;;;;;;;17.38;8.60;;;;;;;24.88;72.13;99627.84;5093765;28;20036;-81
2023/08/31 01:10:14;;;;;;;16.00;8.75;;;;;;;24.98;71.05;99631.88;5093797;28;20396;-79
2023/08/31 01:13:02;;;;;;;13.60;8.23;;;;;;;24.90;71.28;99635.69;5093722;28;20028;-79
2023/08/31 01:15:31;;;;;;;10.32;8.35;;;;;;;24.52;70.10;99578.94;5093537;28;20024;-79
2023/08/31 01:18:00;;;;;;;13.20;7.93;;;;;;;24.70;71.69;99659.25;5075425;28;20036;-79
2023/08/31 01:20:34;;;;;;;8.75;7.82;;;;;;;24.49;71.11;99594.00;5093319;28;20036;-83
2023/08/31 01:23:05;;;;;;;12.57;8.52;;;;;;;24.97;70.83;99648.66;5075026;28;20501;-79
2023/08/31 01:25:32;;;;;;;10.27;7.88;;;;;;;25.00;69.67;99632.69;5093350;28;20035;-80
2023/08/31 01:27:59;;;;;;;13.00;8.32;;;;;;;25.08;70.19;99636.81;5093673;28;20024;-78
2023/08/31 01:30:25;;;;;;;9.82;8.50;;;;;;;24.89;70.50;99632.22;5074982;28;20028;-79
2023/08/31 01:32:50;;;;;;;15.10;8.38;;;;;;;24.98;70.67;99645.06;5075130;28;20043;-81
2023/08/31 01:35:18;;;;;;;12.95;8.75;;;;;;;24.82;70.80;99633.34;5093295;28;20023;-80
2023/08/31 01:37:49;;;;;;;16.80;9.20;;;;;;;24.55;70.91;99578.81;5093296;28;20028;-78
2023/08/31 01:40:19;;;;;;;11.82;7.80;;;;;;;24.60;70.33;99570.72;5092967;28;20035;-80
2023/08/31 01:42:47;;;;;;;16.77;8.50;;;;;;;25.02;70.21;99640.53;5093207;28;20391;-84
2023/08/31 01:45:18;;;;;;;11.65;8.18;;;;;;;25.09;69.86;99636.75;5093266;28;20076;-81
2023/08/31 01:47:44;;;;;;;10.95;8.18;;;;;;;25.12;67.78;99641.94;5092258;28;20036;-80
2023/08/31 01:50:10;;;;;;;12.40;7.63;;;;;;;25.09;68.04;99644.69;5092590;28;20028;-83
2023/08/31 01:52:35;;;;;;;11.90;7.80;;;;;;;25.15;67.32;99659.47;5092591;28;20047;-81
2023/08/31 01:55:00;;;;;;;13.75;8.30;;;;;;;25.09;66.56;99663.19;5074648;28;20107;-79
2023/08/31 01:57:26;;;;;;;10.98;8.07;;;;;;;24.49;66.46;99589.56;5074256;28;20505;-79
2023/08/31 01:59:51;;;;;;;11.98;8.40;;;;;;;24.93;67.35;99686.63;5057853;28;20097;-79
2023/08/31 02:02:17;;;;;;;11.38;7.95;;;;;;;24.87;67.09;99673.63;5092328;28;20131;-79
2023/08/31 02:04:43;;;;;;;15.13;8.18;;;;;;;24.94;66.55;99703.34;5074539;28;20093;-79
2023/08/31 02:07:09;;;;;;;12.35;8.88;;;;;;;24.85;67.11;99675.47;5074158;28;20028;-79
2023/08/31 02:09:34;;;;;;;10.80;7.88;;;;;;;24.63;67.35;99635.72;5092528;28;20114;-79
2023/08/31 02:12:00;;;;;;;11.85;8.27;;;;;;;24.68;67.85;99676.91;5092453;28;20081;-79
2023/08/31 02:14:25;;;;;;;10.60;7.88;;;;;;;24.59;68.13;99671.91;5092294;28;20032;-78
2023/08/31 02:16:50;;;;;;;9.60;8.40;;;;;;;24.63;67.50;99672.69;5073832;28;20077;-78
2023/08/31 02:19:16;;;;;;;11.82;8.10;;;;;;;24.67;66.86;99683.13;5092081;28;20525;-79
2023/08/31 02:21:41;;;;;;;13.43;8.32;;;;;;;24.57;66.92;99670.25;5092138;28;20495;-78
2023/08/31 02:24:07;;;;;;;12.07;8.70;;;;;;;24.66;67.14;99684.03;5091949;28;20035;-82
2023/08/31 02:26:36;;;;;;;12.32;8.68;;;;;;;24.61;66.96;99670.09;5074975;28;20453;-77
2023/08/31 02:29:01;;;;;;;12.65;8.30;;;;;;;24.69;67.83;99686.56;5094572;28;20031;-79
2023/08/31 02:31:26;;;;;;;12.00;8.38;;;;;;;24.64;67.11;99672.63;5094135;28;20115;-78
2023/08/31 02:33:52;;;;;;;12.02;7.72;;;;;;;24.68;67.33;99683.97;5074579;28;20425;-80
2023/08/31 02:36:20;;;;;;;11.02;8.02;;;;;;;24.65;67.31;99678.78;5091453;28;20201;-78
2023/08/31 02:38:46;;;;;;;12.98;8.13;;;;;;;24.37;68.23;99648.91;5091601;28;20475;-79
2023/08/31 02:41:12;;;;;;;13.18;8.85;;;;;;;24.46;68.89;99657.41;5091615;28;20475;-79
2023/08/31 02:43:39;;;;;;;15.10;9.68;;;;;;;24.60;69.20;99692.13;5091686;28;20078;-78
2023/08/31 02:46:04;;;;;;;11.30;7.75;;;;;;;24.66;68.60;99706.91;5073400;28;20059;-84
2023/08/31 02:48:30;;;;;;;13.32;8.43;;;;;;;24.67;67.61;99690.16;5073526;28;20402;-79
2023/08/31 02:51:02;;;;;;;13.35;8.57;;;;;;;24.42;68.69;99690.09;5091252;28;20102;-81
2023/08/31 02:53:30;;;;;;;10.50;8.65;;;;;;;24.18;69.91;99682.06;5072630;28;20044;-78
2023/08/31 02:55:57;;;;;;;11.07;9.13;;;;;;;24.09;70.42;99684.97;5091013;28;20028;-77
2023/08/31 02:58:22;;;;;;;13.73;8.38;;;;;;;24.02;70.91;99679.91;5073105;28;20032;-78
2023/08/31 03:00:48;;;;;;;12.30;9.20;;;;;;;24.12;71.18;99698.94;5072335;28;20427;-80
2023/08/31 03:03:17;;;;;;;11.82;9.18;;;;;;;23.92;71.98;99683.75;5073196;28;20536;-78
2023/08/31 03:05:43;;;;;;;12.95;9.13;;;;;;;24.02;72.15;99697.50;5072752;28;20403;-83
2023/08/31 03:08:08;;;;;;;20.85;9.23;;;;;;;24.02;70.99;99702.78;5072920;28;20495;-79
2023/08/31 03:10:35;;;;;;;11.43;8.38;;;;;;;23.41;71.14;99608.81;5090919;28;20032;-80
2023/08/31 03:13:01;;;;;;;13.63;8.93;;;;;;;24.13;70.52;99726.19;5072781;28;20028;-82
2023/08/31 03:15:26;;;;;;;16.20;9.55;;;;;;;24.08;70.62;99714.91;5072603;28;20479;-79
2023/08/31 03:17:52;;;;;;;15.70;9.73;;;;;;;24.13;70.09;99723.53;5072997;28;20610;-79
2023/08/31 03:20:17;;;;;;;14.02;9.48;;;;;;;24.03;70.14;99720.31;5091315;28;20487;-81
2023/08/31 03:22:42;;;;;;;15.15;9.73;;;;;;;23.80;71.27;99713.94;5091081;28;20028;-78
2023/08/31 03:25:08;;;;;;;12.00;8.68;;;;;;;23.06;71.67;99608.06;5072571;28;20077;-80
2023/08/31 03:27:33;;;;;;;17.23;9.05;;;;;;;23.68;71.55;99733.59;5072737;28;20028;-79
2023/08/31 03:29:59;;;;;;;11.65;8.70;;;;;;;23.61;72.15;99742.59;5090928;28;20387;-82
2023/08/31 03:32:24;;;;;;;12.23;8.95;;;;;;;23.51;72.13;99713.00;5047745;28;20569;-78
2023/08/31 03:34:50;;;;;;;11.77;8.63;;;;;;;23.62;71.40;99723.25;5047572;28;20041;-78
2023/08/31 03:37:16;;;;;;;10.98;8.85;;;;;;;23.64;71.29;99717.91;5048094;28;20044;-78
2023/08/31 03:39:42;;;;;;;13.95;9.75;;;;;;;23.72;71.90;99734.38;5048020;28;20033;-77
2023/08/31 03:42:11;;;;;;;12.70;9.02;;;;;;;23.59;70.88;99729.47;5047910;28;20486;-82
2023/08/31 03:44:37;;;;;;;13.30;9.18;;;;;;;23.62;71.52;99733.78;5047929;28;20726;-81
2023/08/31 03:47:03;;;;;;;11.65;8.93;;;;;;;23.57;71.66;99717.25;5046800;28;20041;-79
2023/08/31 03:49:28;;;;;;;12.70;8.52;;;;;;;23.58;71.69;99725.09;5046665;28;20033;-80
2023/08/31 03:51:53;;;;;;;15.93;9.02;;;;;;;23.52;71.69;99721.78;5045002;28;20052;-79
2023/08/31 03:54:20;;;;;;;16.42;9.55;;;;;;;23.61;71.19;99726.78;5046333;28;20048;-82
2023/08/31 03:56:47;;;;;;;16.20;9.45;;;;;;;23.62;71.08;99732.94;5030888;28;20032;-78
2023/08/31 03:59:12;;;;;;;27.73;9.05;;;;;;;23.39;71.58;99722.13;5042002;28;20095;-81
2023/08/31 04:01:38;;;;;;;17.30;8.93;;;;;;;23.43;72.06;99742.22;5030862;28;20158;-80
2023/08/31 04:04:04;;;;;;;14.27;8.48;;;;;;;23.36;73.12;99745.06;5062312;28;20036;-79
2023/08/31 04:06:30;;;;;;;16.83;9.57;;;;;;;23.47;72.61;99745.63;5089315;28;20024;-79
2023/08/31 04:08:55;;;;;;;17.52;9.45;;;;;;;23.46;72.48;99743.03;5090236;28;20501;-80
2023/08/31 04:11:21;;;;;;;13.52;8.77;;;;;;;23.43;72.62;99744.84;5073730;28;20532;-79
2023/08/31 04:13:46;;;;;;;13.25;9.43;;;;;;;23.45;72.57;99757.13;5093390;28;20032;-79
2023/08/31 04:16:11;;;;;;;22.15;9.52;;;;;;;23.37;72.38;99752.91;5093665;28;20035;-80
2023/08/31 04:18:37;;;;;;;14.25;9.80;;;;;;;23.49;72.20;99761.38;5094115;28;20024;-78
2023/08/31 04:21:03;;;;;;;14.23;9.25;;;;;;;23.54;72.42;99759.47;5076575;28;20032;-79
2023/08/31 04:23:29;;;;;;;13.65;9.25;;;;;;;23.55;71.92;99763.84;5094658;28;20078;-80
2023/08/31 04:25:57;;;;;;;17.02;9.27;;;;;;;23.62;71.22;99770.69;5076205;28;20475;-80
2023/08/31 04:28:23;;;;;;;15.65;8.88;;;;;;;23.55;71.45;99761.22;5076274;28;20089;-80
2023/08/31 04:30:49;;;;;;;14.48;8.90;;;;;;;23.54;71.33;99776.16;5094549;28;20126;-79
2023/08/31 04:33:14;;;;;;;17.13;9.32;;;;;;;23.55;70.83;99758.56;5094169;28;20126;-78
2023/08/31 04:35:40;;;;;;;13.32;8.70;;;;;;;23.64;72.08;99770.63;5075963;28;20483;-80
2023/08/31 04:38:05;;;;;;;13.57;8.90;;;;;;;23.62;70.85;99773.31;5094441;28;20030;-80
2023/08/31 04:40:31;;;;;;;13.27;7.70;;;;;;;23.65;69.52;99781.16;5094574;28;20028;-80
2023/08/31 04:42:56;;;;;;;14.25;7.40;;;;;;;23.23;68.11;99721.69;5031406;28;20037;-79
2023/08/31 04:45:21;;;;;;;10.93;7.07;;;;;;;23.63;67.92;99803.16;5031506;28;20048;-79
2023/08/31 04:47:49;;;;;;;12.60;6.93;;;;;;;23.60;68.21;99796.19;5031359;28;20508;-78
2023/08/31 04:50:14;;;;;;;10.50;6.90;;;;;;;23.54;67.88;99791.09;5031762;28;20041;-78
2023/08/31 04:52:40;;;;;;;13.20;6.82;;;;;;;23.65;67.56;99796.06;5030852;28;20071;-82
2023/08/31 04:55:11;;;;;;;13.90;6.35;;;;;;;23.67;66.61;99797.75;5031354;28;20136;-78
2023/08/31 04:57:36;;;;;;;10.88;6.70;;;;;;;23.72;65.59;99785.31;5014578;28;20044;-79
2023/08/31 05:00:03;;;;;;;15.63;6.47;;;;;;;23.77;64.89;99797.50;5030710;28;20025;-79
2023/08/31 05:02:28;;;;;;;9.52;5.93;;;;;;;23.85;64.49;99803.41;5014381;28;20053;-79
2023/08/31 05:04:54;;;;;;;12.02;5.45;;;;;;;23.92;64.38;99793.59;5005272;28;20088;-80
2023/08/31 05:07:19;;;;;;;12.35;5.97;;;;;;;23.81;64.04;99776.28;5030822;28;20523;-83
2023/08/31 05:09:44;;;;;;;11.30;6.05;;;;;;;23.97;63.21;99795.19;5019734;28;20068;-80
2023/08/31 05:12:10;;;;;;;17.48;6.40;;;;;;;24.04;63.43;99802.00;5022167;28;20404;-80
2023/08/31 05:14:37;;;;;;;12.93;6.95;;;;;;;24.12;63.46;99808.84;5057657;28;20051;-80
2023/08/31 05:17:06;;;;;;;14.18;8.30;;;;;;;24.22;63.32;99808.53;5070445;28;20020;-79
2023/08/31 05:19:31;;;;;;;21.48;7.22;;;;;;;24.02;64.33;99805.59;5066258;28;20040;-79
2023/08/31 05:21:57;;;;;;;11.15;5.40;;;;;;;23.84;63.45;99796.41;5069452;28;20029;-85
2023/08/31 05:24:23;;;;;;;9.50;4.60;;;;;;;23.72;61.58;99795.00;5065159;28;20047;-88
2023/08/31 05:26:49;;;;;;;9.77;5.20;;;;;;;23.81;63.06;99825.50;5050480;28;20036;-86
2023/08/31 05:29:14;;;;;;;6.18;3.97;;;;;;;23.84;62.38;99823.66;5060628;28;20081;-81
2023/08/31 05:31:40;;;;;;;6.78;3.25;;;;;;;23.81;61.05;99833.41;5040282;28;20037;-79
2023/08/31 05:34:05;;;;;;;6.55;3.75;;;;;;;23.40;60.84;99779.19;5053141;28;20048;-78
2023/08/31 05:36:31;;;;;;;5.70;3.33;;;;;;;23.61;60.50;99811.09;5069405;28;20182;-82
2023/08/31 05:38:56;;;;;;;8.27;3.88;;;;;;;23.59;60.56;99783.94;5062863;28;20047;-79
2023/08/31 05:41:22;;;;;;;8.65;3.67;;;;;;;23.87;61.75;99812.16;5052323;28;20075;-79
2023/08/31 05:43:47;;;;;;;10.30;4.50;;;;;;;23.96;60.21;99801.34;5063925;28;20043;-81
2023/08/31 05:46:12;;;;;;;15.13;5.82;;;;;;;23.77;61.59;99757.97;5066488;28;20102;-80
2023/08/31 05:48:38;;;;;;;14.88;5.82;;;;;;;24.19;60.88;99802.47;5062426;28;20033;-79
2023/08/31 05:51:03;;;;;;;8.35;4.43;;;;;;;24.20;60.00;99804.19;5080068;28;20036;-78
2023/08/31 05:53:32;;;;;;;11.05;4.53;;;;;;;24.20;58.34;99817.38;5091927;28;20105;-77
2023/08/31 05:56:05;;;;;;;9.57;3.73;;;;;;;24.16;58.67;99807.81;5091898;28;20032;-80
2023/08/31 05:58:34;;;;;;;7.03;3.75;;;;;;;24.17;58.63;99793.75;5089347;28;20042;-83
2023/08/31 06:01:00;;;;;;;;;;;;;;;24.49;58.27;99821.75;5090135;28;20093;-82
2023/08/31 06:03:29;;;;;;;6.53;3.40;;;;;;;24.60;59.50;99820.56;5073245;28;19912;-79
2023/08/31 06:05:57;;;;;;;8.82;3.40;;;;;;;24.62;57.57;99816.09;5092232;28;20102;-80
2023/08/31 06:08:23;;;;;;;9.45;3.67;;;;;;;24.77;58.62;99825.34;5073339;28;20023;-77
2023/08/31 06:10:49;;;;;;;7.30;3.35;;;;;;;24.80;57.73;99809.38;5090468;28;20028;-75
2023/08/31 06:13:14;;;;;;;7.78;3.70;;;;;;;25.01;56.13;99821.91;5091646;28;20024;-73
2023/08/31 06:15:40;;;;;;;6.55;3.00;;;;;;;25.08;57.72;99801.41;5073913;28;20032;-75
2023/08/31 06:18:06;;;;;;;8.00;3.22;;;;;;;25.34;55.40;99824.28;5073187;28;20030;-74
2023/08/31 06:20:32;;;;;;;14.90;4.10;;;;;;;25.27;57.35;99809.59;5089990;28;20094;-76
2023/08/31 06:22:59;;;;;;;6.80;3.38;;;;;;;25.36;54.81;99813.69;5092254;28;20050;-76
2023/08/31 06:25:25;;;;;;;10.40;4.10;;;;;;;25.39;56.02;99815.41;5091430;28;20024;-77
2023/08/31 06:27:51;;;;;;;8.00;4.10;;;;;;;25.58;58.73;99818.25;5091763;28;20444;-77
2023/08/31 06:30:18;;;;;;;10.13;4.85;;;;;;;25.74;56.48;99814.13;5091823;28;20036;-78
2023/08/31 06:32:45;;;;;;;8.10;4.78;;;;;;;25.75;56.35;99815.00;5072596;28;20039;-76
2023/08/31 06:35:17;;;;;;;6.03;3.05;;;;;;;25.84;52.69;99804.06;5047647;28;20040;-77
2023/08/31 06:37:43;;;;;;;8.18;3.47;;;;;;;26.03;55.78;99827.19;5048044;28;20116;-78
2023/08/31 06:40:10;;;;;;;7.45;4.13;;;;;;;26.15;53.68;99827.63;5048108;28;20041;-78
2023/08/31 06:42:37;;;;;;;10.80;4.10;;;;;;;26.18;53.67;99816.06;5047391;28;20029;-77
2023/08/31 06:45:06;;;;;;;11.13;3.30;;;;;;;26.42;51.53;99822.19;5032005;28;20102;-79
2023/08/31 06:47:32;;;;;;;7.45;3.10;;;;;;;26.56;51.56;99831.38;5046363;28;20041;-77
2023/08/31 06:50:00;;;;;;;6.45;3.75;;;;;;;26.20;50.79;99731.34;5028393;28;20464;-78
2023/08/31 06:52:27;;;;;;;7.90;3.17;;;;;;;26.80;50.16;99818.97;5045762;28;20045;-79
2023/08/31 06:54:56;;;;;;;8.27;3.60;;;;;;;26.73;50.20;99828.03;5048296;28;20528;-76
2023/08/31 06:57:39;;;;;;;7.22;3.47;;;;;;;26.80;49.99;99842.78;5008500;28;20139;-77
2023/08/31 07:00:08;;;;;;;7.18;3.40;;;;;;;26.71;51.55;99821.97;5009014;28;20118;-76
2023/08/31 07:02:34;;;;;;;6.88;3.25;;;;;;;26.74;49.65;99827.16;5006121;28;20045;-77
2023/08/31 07:05:01;;;;;;;10.27;3.60;;;;;;;26.73;50.67;99841.28;5008359;28;20429;-76
2023/08/31 07:07:26;;;;;;;6.13;3.60;;;;;;;26.77;50.48;99835.00;5028287;28;20041;-76
2023/08/31 07:09:52;;;;;;;12.27;3.90;;;;;;;26.96;49.24;99838.59;5028147;28;20030;-74
2023/08/31 07:12:17;;;;;;;7.97;3.60;;;;;;;27.11;49.37;99857.44;5028279;28;20037;-77
2023/08/31 07:14:43;;;;;;;8.25;3.70;;;;;;;27.14;49.15;99857.28;5027745;28;20022;-77
2023/08/31 07:17:09;;;;;;;7.63;4.13;;;;;;;27.22;49.26;99855.19;5027858;28;20052;-75
2023/08/31 07:19:37;;;;;;;9.77;3.80;;;;;;;27.28;48.02;99832.88;5028130;28;20405;-78
2023/08/31 07:22:04;;;;;;;7.13;3.78;;;;;;;27.55;47.82;99853.84;5028429;28;20049;-78
2023/08/31 07:24:32;;;;;;;10.13;3.70;;;;;;;27.17;48.70;99854.53;5027691;28;20523;-77
2023/08/31 07:26:57;;;;;;;8.25;3.97;;;;;;;27.36;48.07;99867.00;5005381;28;20052;-78
2023/08/31 07:29:23;;;;;;;5.28;3.42;;;;;;;27.46;47.37;99865.72;5072971;28;20054;-78
2023/08/31 07:31:48;;;;;;;6.10;3.80;;;;;;;27.40;48.27;99858.00;5090383;28;20597;-78
2023/08/31 07:34:14;;;;;;;9.02;3.72;;;;;;;27.46;49.50;99855.09;5071992;28;20023;-78
2023/08/31 07:36:40;;;;;;;8.15;3.88;;;;;;;27.48;48.46;99847.06;5090391;28;20032;-75
2023/08/31 07:39:07;;;;;;;10.43;4.55;;;;;;;27.63;47.92;99869.41;5090482;28;20529;-76
2023/08/31 07:41:34;;;;;;;6.22;3.50;;;;;;;27.71;48.52;99859.34;5071317;28;20387;-74
2023/08/31 07:44:00;;;;;;;7.25;4.15;;;;;;;27.87;51.19;99862.19;5089949;28;20077;-76
2023/08/31 07:46:26;;;;;;;10.88;4.00;;;;;;;27.91;49.00;99842.53;5068866;28;20024;-80
2023/08/31 07:48:52;;;;;;;7.03;3.70;;;;;;;28.00;46.25;99854.50;5078858;28;20487;-79
2023/08/31 07:51:22;;;;;;;6.32;3.85;;;;;;;27.96;47.07;99850.28;5068790;28;20832;-81
2023/08/31 07:53:49;;;;;;;12.93;6.55;;;;;;;28.07;46.93;99866.63;5076904;28;20052;-79
2023/08/31 07:56:15;;;;;;;9.95;4.70;;;;;;;27.99;47.13;99855.44;5049311;28;20029;-76
2023/08/31 07:58:41;;;;;;;9.60;4.53;;;;;;;27.96;47.38;99876.81;5031254;28;20063;-78
2023/08/31 08:01:06;;;;;;;8.88;4.40;;;;;;;27.76;49.87;99830.81;5047821;28;20432;-79
2023/08/31 08:03:32;;;;;;;9.13;4.22;;;;;;;28.03;46.54;99846.44;5047673;28;20033;-83
2023/08/31 08:05:57;;;;;;;9.20;4.32;;;;;;;28.13;48.32;99846.91;5047658;28;20488;-85
2023/08/31 08:08:23;;;;;;;11.30;4.07;;;;;;;28.16;45.86;99842.28;5047762;28;20045;-86
2023/08/31 08:10:53;;;;;;;6.75;4.13;;;;;;;28.32;45.48;99844.25;5047140;28;20033;-80
2023/08/31 08:13:18;;;;;;;7.45;3.70;;;;;;;28.39;46.84;99851.00;5030998;28;20029;-82
2023/08/31 08:15:45;;;;;;;10.30;4.72;;;;;;;28.27;45.30;99819.72;5034006;28;20650;-79
2023/08/31 08:18:11;;;;;;;7.93;4.28;;;;;;;28.64;46.13;99863.09;5054975;28;20029;-80
2023/08/31 08:20:37;;;;;;;7.00;3.72;;;;;;;28.88;44.31;99864.56;5059109;28;20033;-79
2023/08/31 08:23:03;;;;;;;10.93;4.43;;;;;;;29.08;44.01;99852.09;5038235;28;20032;-78
2023/08/31 08:25:29;;;;;;;9.27;4.00;;;;;;;29.09;43.94;99843.19;5035817;28;20029;-82
2023/08/31 08:27:54;;;;;;;9.20;4.00;;;;;;;29.10;43.29;99852.03;5049122;28;20040;-79
2023/08/31 08:30:20;;;;;;;9.52;4.05;;;;;;;29.07;43.88;99854.84;5033981;28;20037;-80
2023/08/31 08:32:46;;;;;;;10.10;4.82;;;;;;;29.16;43.47;99859.69;5039158;28;20397;-81
2023/08/31 08:35:11;;;;;;;8.57;4.57;;;;;;;29.23;44.10;99855.78;5091319;28;20055;-78
2023/08/31 08:37:38;;;;;;;15.93;5.53;;;;;;;29.29;43.84;99860.84;5090986;28;20028;-76
2023/08/31 08:40:04;;;;;;;8.27;4.57;;;;;;;29.05;44.89;99860.25;5072400;28;20024;-77
2023/08/31 08:42:33;;;;;;;9.35;5.07;;;;;;;29.05;44.69;99836.34;5089715;28;20025;-77
2023/08/31 08:45:01;;;;;;;7.97;4.53;;;;;;;29.28;43.45;99843.13;5071488;28;20079;-78
2023/08/31 08:47:27;;;;;;;7.65;5.00;;;;;;;29.45;43.67;99866.22;5089445;28;20115;-76
2023/08/31 08:49:54;;;;;;;7.13;4.50;;;;;;;29.33;43.68;99840.28;5071904;28;20499;-78
2023/08/31 08:52:21;;;;;;;11.38;5.57;;;;;;;29.41;43.92;99843.41;5089708;28;20131;-76
2023/08/31 08:54:48;;;;;;;9.85;4.50;;;;;;;29.52;42.73;99857.00;5071477;28;20034;-78
2023/08/31 08:57:14;;;;;;;14.93;4.60;;;;;;;29.60;42.95;99851.28;5073218;28;20032;-77
2023/08/31 08:59:39;;;;;;;6.82;3.67;;;;;;;29.60;42.71;99823.81;5093266;28;20016;-78
2023/08/31 09:02:09;;;;;;;6.18;4.05;;;;;;;29.33;41.49;99744.56;5075615;28;20016;-77
2023/08/31 09:04:34;;;;;;;;;;;;;;;29.89;42.16;99853.34;5076097;28;20495;-79
2023/08/31 09:07:00;;;;;;;8.80;4.00;;;;;;;29.69;42.57;99849.94;5086246;28;19924;-78
2023/08/31 09:09:26;;;;;;;7.22;4.13;;;;;;;29.77;41.52;99833.56;5073421;28;20016;-82
2023/08/31 09:11:51;;;;;;;6.78;4.20;;;;;;;30.07;42.31;99848.84;5055097;28;20032;-78
2023/08/31 09:14:19;;;;;;;10.70;4.80;;;;;;;30.29;41.36;99833.41;5073146;28;20021;-78
2023/08/31 09:16:50;;;;;;;10.68;4.93;;;;;;;30.51;40.90;99845.56;5055263;28;20059;-78
2023/08/31 09:19:23;;;;;;;8.90;5.30;;;;;;;30.46;41.63;99844.94;5073117;28;20036;-80
2023/08/31 09:21:51;;;;;;;6.97;5.43;;;;;;;30.50;40.63;99839.38;5054953;28;20132;-80
2023/08/31 09:24:20;;;;;;;9.25;4.80;;;;;;;30.63;39.90;99830.69;5054838;28;20111;-84
2023/08/31 09:26:57;;;;;;;;;;;;;;;30.86;39.86;99836.50;5055717;28;20033;-85
2023/08/31 09:29:23;;;;;;;5.32;4.45;;;;;;;30.61;39.18;99793.47;5055135;28;20350;-86
2023/08/31 09:31:49;;;;;;;15.05;4.70;;;;;;;30.88;39.17;99837.25;5054986;28;20029;-87
2023/08/31 09:34:16;;;;;;;9.32;4.50;;;;;;;30.95;39.07;99825.31;5061916;28;20036;-85
2023/08/31 09:36:43;;;;;;;8.23;4.55;;;;;;;30.95;38.67;99791.50;5073900;28;20028;-84
2023/08/31 09:39:09;;;;;;;8.27;4.47;;;;;;;31.29;37.89;99831.31;5089300;28;20020;-82
2023/08/31 09:41:36;;;;;;;9.00;4.93;;;;;;;31.36;37.86;99826.50;5073815;28;20036;-81
2023/08/31 09:44:18;;;;;;;7.45;4.50;;;;;;;31.25;38.49;99773.81;5091873;28;20028;-80
2023/08/31 09:46:44;;;;;;;8.27;4.32;;;;;;;31.76;42.62;99827.59;5072111;28;20056;-78
2023/08/31 09:49:14;;;;;;;9.65;5.10;;;;;;;31.77;40.08;99821.31;5091609;28;20028;-79
2023/08/31 09:51:45;;;;;;;7.57;4.65;;;;;;;31.70;37.78;99793.31;5089179;28;20115;-79
2023/08/31 09:54:15;;;;;;;8.57;4.75;;;;;;;32.06;37.40;99815.94;5073006;28;20434;-79
2023/08/31 09:56:45;;;;;;;9.25;4.40;;;;;;;32.29;35.97;99816.34;5073516;28;20551;-81
2023/08/31 09:59:12;;;;;;;11.02;4.60;;;;;;;32.33;35.78;99815.19;5066256;28;20059;-80
2023/08/31 10:01:39;;;;;;;8.48;5.00;;;;;;;32.35;36.75;99805.25;5068669;28;20091;-80
2023/08/31 10:04:08;;;;;;;9.43;5.13;;;;;;;32.56;36.42;99807.47;5050458;28;20491;-80
2023/08/31 10:06:39;;;;;;;9.98;5.10;;;;;;;32.67;35.92;99809.44;5052952;28;20021;-80
2023/08/31 10:09:05;;;;;;;7.03;5.25;;;;;;;32.88;34.92;99808.03;5050478;28;20068;-86
2023/08/31 10:11:31;;;;;;;10.90;5.15;;;;;;;32.89;34.49;99808.91;5052516;28;20606;-81
2023/08/31 10:13:58;;;;;;;6.55;5.00;;;;;;;32.98;34.50;99815.44;5051970;28;20067;-81
2023/08/31 10:16:29;;;;;;;8.18;5.18;;;;;;;32.89;34.59;99803.56;5052181;28;20442;-83
2023/08/31 10:18:57;;;;;;;7.80;4.88;;;;;;;33.09;33.62;99810.22;5046053;28;20099;-85
2023/08/31 10:21:23;;;;;;;8.70;5.17;;;;;;;32.99;33.07;99790.44;5043248;28;20534;-83
2023/08/31 10:23:49;;;;;;;9.90;5.32;;;;;;;33.23;34.32;99809.28;5046989;28;20362;-81
2023/08/31 10:26:29;;;;;;;9.18;5.20;;;;;;;33.01;34.80;99759.94;5036262;28;20033;-79
2023/08/31 10:28:58;;;;;;;9.65;5.72;;;;;;;33.51;33.25;99815.41;5052837;28;20115;-85
2023/08/31 10:31:27;;;;;;;;;;;;;;;33.59;32.83;99810.41;5052484;28;20488;-81
2023/08/31 10:33:57;;;;;;;7.20;5.20;;;;;;;33.50;32.35;99776.28;5060559;28;19959;-89
2023/08/31 10:36:44;;;;;;;9.93;5.35;;;;;;;33.44;31.92;99793.59;5066469;28;20025;-83
2023/08/31 10:39:17;;;;;;;6.90;4.35;;;;;;;33.46;31.01;99799.72;5032227;28;20032;-92
2023/08/31 10:42:04;;;;;;;8.98;5.20;;;;;;;33.50;30.84;99803.03;5046651;28;20156;-86
2023/08/31 10:44:34;;;;;;;8.30;4.40;;;;;;;33.36;30.71;99775.41;5052501;28;20028;-90
2023/08/31 10:47:03;;;;;;;6.93;4.32;;;;;;;33.72;30.40;99791.63;5052517;28;20067;-86
2023/08/31 10:49:29;;;;;;;9.15;3.97;;;;;;;33.79;28.64;99797.44;5052698;28;20139;-81
2023/08/31 10:51:57;;;;;;;8.30;4.40;;;;;;;34.10;29.07;99797.94;5051984;28;20669;-84
2023/08/31 10:54:24;;;;;;;9.03;4.60;;;;;;;34.08;29.18;99797.19;5028869;28;20048;-86
2023/08/31 10:57:05;;;;;;;6.40;3.30;;;;;;;33.71;27.97;99750.66;5013263;28;20038;-90
2023/08/31 10:59:48;;;;;;;6.60;4.07;;;;;;;33.90;27.72;99776.13;5029480;28;20033;-89
2023/08/31 11:02:38;;;;;;;20.92;4.88;;;;;;;34.28;30.75;99782.34;5027896;28;20045;-89
2023/08/31 11:05:07;;;;;;;9.40;4.25;;;;;;;33.96;28.94;99791.75;5028804;28;20504;-80
2023/08/31 11:07:35;;;;;;;11.25;4.50;;;;;;;34.07;28.80;99787.44;5030195;28;20037;-82
2023/08/31 11:10:13;;;;;;;9.98;4.60;;;;;;;34.14;31.17;99786.88;5031503;28;20060;-81
2023/08/31 11:12:40;;;;;;;13.75;4.43;;;;;;;33.96;28.70;99751.59;5035026;28;20049;-82
2023/08/31 11:15:07;;;;;;;12.68;4.68;;;;;;;34.29;28.46;99782.22;4997097;28;20030;-84
2023/08/31 11:17:33;;;;;;;7.03;4.05;;;;;;;34.39;29.01;99760.13;4992572;28;20037;-86
2023/08/31 11:20:00;;;;;;;10.23;4.32;;;;;;;34.47;29.23;99761.28;5008437;28;20464;-84
2023/08/31 11:22:26;;;;;;;7.05;4.10;;;;;;;34.51;27.39;99778.00;5008624;28;20034;-85
2023/08/31 11:24:51;;;;;;;5.72;3.63;;;;;;;34.13;27.77;99752.16;5008628;28;20045;-83
2023/08/31 11:27:21;;;;;;;7.65;3.97;;;;;;;34.42;27.68;99767.94;4992740;28;20041;-83
2023/08/31 11:29:48;;;;;;;7.57;3.60;;;;;;;34.56;26.25;99757.06;5008907;28;20502;-85
2023/08/31 11:32:14;;;;;;;7.78;3.50;;;;;;;34.74;30.10;99772.72;5035100;28;20120;-83
2023/08/31 11:34:42;;;;;;;9.38;3.95;;;;;;;33.27;28.54;99579.88;5031355;28;20260;-84